In Rescue
 
Open Full Screen Window  High Contrast Mode
Wind Gusting 00 knots
12
May 13, 2021 10:45 AM CDT
Weather Information
Wind Direction
  180 °
Wind Speed
  12 kt (14 mph)
Wind Gust
  00 kt (0 mph)
Altimeter
30.23 in
Visibility
10 SM
Temperature
18° C
64° F
Dewpoint
01° C
34° F
Humidity
32%
1hr Rain Fall
00.00 in.
24hr Rain Fall
00.00 in.
Sky Condition
Clear
VFR

METAR KDTL 131545Z AUTO 18012KT 10SM CLR 18/01 A3023 RMK AO2

FAA Disclaimer: The data displayed is for advisory purposes only and is not to be used for flight planning or operations.